Terminal Aerodrome Forecast
Issued by NWS Twin Cities, MN

Home | Current Version | Previous Version | Text Only | Print | Product List | Glossary On
Versions: 1 2 3 4 5 6 7 8 9 10 11 12 13 14 15
198
FTUS43 KMPX 310520
TAFSTC
TAF
KSTC 310520Z 3106/0106 10006KT P6SM VCSH SCT090 BKN200
      TEMPO 3108/3110 4SM TSRA OVC050CB
     FM311000 13008KT P6SM -SHRA VCTS SCT025CB OVC045
     FM311200 16010KT P6SM VCSH BKN050 OVC100
     FM311500 22009KT P6SM BKN200=

USA.gov is the U.S. government's official web portal to all federal, state and local government web resources and services.